createdAt,value
2023-04-23T01:22:13.782Z,97054.53
2023-04-23T01:29:45.721Z,97063.03
2023-04-23T01:32:59.241Z,97061.84
2023-04-23T01:42:22.306Z,97056.97
2023-04-23T02:12:57.646Z,97055.13
2023-04-23T06:09:57.130Z,96905.47
2023-04-23T08:01:21.254Z,96854.94
2023-04-23T08:04:28.168Z,96850.53
2023-04-23T08:07:33.862Z,96853.19
2023-04-23T08:10:46.835Z,96852.59
2023-04-23T08:27:43.348Z,96849.41
2023-04-23T08:44:27.479Z,96846.41
2023-04-23T09:05:07.413Z,96838.19
2023-04-23T09:08:33.683Z,96833.28
2023-04-23T09:19:04.325Z,96812.84
2023-04-23T09:53:12.598Z,96810.06
2023-04-23T12:23:40.303Z,96673.38
2023-04-23T12:44:56.702Z,96639.16
2023-04-23T12:55:00.634Z,96644.16
2023-04-23T12:58:57.246Z,96650.84
2023-04-23T13:01:41.729Z,96655.72
2023-04-23T13:08:11.381Z,96646.53
2023-04-23T13:11:16.771Z,96642.47
2023-04-23T13:17:40.859Z,96646.06
2023-04-23T13:20:45.247Z,96647.09
2023-04-23T13:23:50.789Z,96649.03
2023-04-23T13:26:56.432Z,96641.44
2023-04-23T13:30:07.335Z,96639.09
2023-04-23T13:33:13.121Z,96636.97
2023-04-23T13:36:17.597Z,96629.34
2023-04-23T13:39:24.408Z,96623.28
2023-04-23T13:42:32.932Z,96622.97
2023-04-23T13:45:37.177Z,96625.38
2023-04-23T13:48:45.883Z,96628.09
2023-04-23T13:51:54.129Z,96626.41
2023-04-23T13:54:58.387Z,96627.63
2023-04-23T13:58:02.393Z,96628.19
2023-04-23T14:01:07.614Z,96621.63
2023-04-23T14:04:13.555Z,96615.31
2023-04-23T14:14:19.638Z,96589.16
2023-04-23T14:17:31.453Z,96588.75
2023-04-23T14:20:42.636Z,96576.81
2023-04-23T14:23:58.060Z,96565.94
2023-04-23T14:27:15.298Z,96559.16
2023-04-23T14:30:21.825Z,96557.56
2023-04-23T14:33:32.863Z,96549.13
2023-04-23T14:40:10.191Z,96531.72
2023-04-23T14:43:19.089Z,96536.19
2023-04-23T14:46:37.120Z,96528.59
2023-04-23T14:49:43.324Z,96530.53
2023-04-23T14:52:53.042Z,96521.75
2023-04-23T14:56:00.987Z,96534.81
2023-04-23T15:17:06.274Z,96557.84
2023-04-23T15:26:31.447Z,96574.94
2023-04-23T15:29:39.592Z,96592.19
2023-04-23T15:32:50.756Z,96608.19
2023-04-23T15:36:20.190Z,96631.41
2023-04-23T15:39:37.365Z,96671.88
2023-04-23T15:43:29.055Z,96681.19
2023-04-23T15:54:36.336Z,96767.06
2023-04-23T15:57:40.487Z,96787.50
2023-04-23T16:00:50.295Z,96788.34
2023-04-23T16:07:06.674Z,96810.56
2023-04-23T16:10:13.927Z,96835.19
2023-04-23T16:13:21.079Z,96837.53
2023-04-23T16:19:07.073Z,96849.09
2023-04-23T16:22:12.204Z,96857.84
2023-04-23T16:25:16.326Z,96856.47
2023-04-23T16:35:12.196Z,96842.56
2023-04-23T16:38:18.222Z,96806.88
2023-04-23T16:41:23.506Z,96774.31
2023-04-23T16:44:27.912Z,96762.16
2023-04-23T16:47:51.868Z,96780.00
2023-04-23T16:51:00.408Z,96786.44
2023-04-23T16:54:10.072Z,96780.16
2023-04-23T17:04:14.270Z,96796.00
2023-04-23T17:07:19.109Z,96783.00
2023-04-23T17:13:53.495Z,96798.81
2023-04-23T17:16:57.933Z,96787.25
2023-04-23T17:23:28.846Z,96773.50
2023-04-23T17:26:36.640Z,96778.28
2023-04-23T17:29:52.287Z,96782.81
2023-04-23T17:33:00.473Z,96767.44
2023-04-23T17:36:17.427Z,96769.03
2023-04-23T17:39:22.073Z,96783.34
2023-04-23T17:42:54.195Z,96792.84
2023-04-23T17:45:56.126Z,96785.44
2023-04-23T17:49:45.957Z,96789.94
2023-04-23T17:52:31.412Z,96790.44
2023-04-23T17:55:38.786Z,96785.44
2023-04-23T18:02:19.629Z,96797.88
2023-04-23T18:05:26.664Z,96798.91
2023-04-23T18:08:39.014Z,96801.59
2023-04-23T18:11:45.964Z,96802.09
2023-04-23T18:14:54.916Z,96815.06
2023-04-23T21:51:48.341Z,96844.06
